^^
Grace C. Lehan Memorial Weather Station Historical Data
Daily Summary for May 20, 2021 Units:  Both    English   Metric
Daily Weekly Monthly Yearly
  High: Low: Average:
Temperature: 36.4 °F /  2.4 °C 26 °F /  -3.3 °C 31.4 °F /  -0.3 °C
Dew Point: 28 °F /  -2.2 °C 17.1 °F /  -8.3 °C 22.3 °F /  -5.4 °C
Humidity: 89% 49.6% 70%
Wind Speed: 12.4mph /  20km/h - 4mph /  6.4km/h
Wind Gust: 24mph /  38.6km/h - -
Wind- - NW
Pressure: 30.02 in /  1016.5 hPa 29.97 in /  1014.8 hPa -
Precipitation: 0.00 in /  0 mm    
 
 
Tabular Data for May 20, 2021
Time Temperature Dew Point Pressure Wind Wind Speed Wind Gust Humidity Rainfall Rate (Hourly) solar
00:04 30.9 °F /  -0.6 °C 27.5 °F /  -2.5 °C 29.99in /  1015.5hPa NW 1.3mph /  2.1km/h 7mph /  11.3km/h 87% 0.00in /  0mm 0 W/m2
00:09 30.9 °F /  -0.6 °C 27.5 °F /  -2.5 °C 29.99in /  1015.5hPa NNW 2.9mph /  4.7km/h 8mph /  12.9km/h 87% 0.00in /  0mm 0 W/m2
00:14 30.9 °F /  -0.6 °C 27.5 °F /  -2.5 °C 29.99in /  1015.5hPa NNW 2mph /  3.2km/h 9mph /  14.5km/h 87% 0.00in /  0mm 0 W/m2
00:19 30.9 °F /  -0.6 °C 27.5 °F /  -2.5 °C 29.99in /  1015.5hPa NNW 0.9mph /  1.4km/h 9mph /  14.5km/h 87% 0.00in /  0mm 0 W/m2
00:24 30.9 °F /  -0.6 °C 27.5 °F /  -2.5 °C 29.99in /  1015.5hPa North 0.3mph /  0.5km/h 9mph /  14.5km/h 87% 0.00in /  0mm 0 W/m2
00:29 31 °F /  -0.6 °C 27.6 °F /  -2.4 °C 29.99in /  1015.5hPa NNW 0.6mph /  1km/h 9mph /  14.5km/h 87% 0.00in /  0mm 0 W/m2
00:34 31 °F /  -0.6 °C 27.8 °F /  -2.3 °C 29.99in /  1015.5hPa North 0.5mph /  0.8km/h 9mph /  14.5km/h 87.9% 0.00in /  0mm 0 W/m2
00:39 31 °F /  -0.6 °C 27.9 °F /  -2.3 °C 29.99in /  1015.5hPa NNW 0.1mph /  0.2km/h 4mph /  6.4km/h 88% 0.00in /  0mm 0 W/m2
00:44 31 °F /  -0.6 °C 27.9 °F /  -2.3 °C 29.99in /  1015.5hPa Calm   4mph /  6.4km/h 88% 0.00in /  0mm 0 W/m2
00:49 31 °F /  -0.6 °C 27.9 °F /  -2.3 °C 29.99in /  1015.5hPa Calm   4mph /  6.4km/h 88% 0.00in /  0mm 0 W/m2
00:54 31 °F /  -0.6 °C 27.9 °F /  -2.3 °C 29.99in /  1015.5hPa NNW 0.2mph /  0.3km/h 4mph /  6.4km/h 88% 0.00in /  0mm 0 W/m2
00:59 31 °F /  -0.6 °C 27.9 °F /  -2.3 °C 29.99in /  1015.5hPa Calm   4mph /  6.4km/h 88% 0.00in /  0mm 0 W/m2
01:04 31 °F /  -0.6 °C 27.9 °F /  -2.3 °C 29.99in /  1015.5hPa Calm   4mph /  6.4km/h 88% 0.00in /  0mm 0 W/m2
01:09 31 °F /  -0.6 °C 27.9 °F /  -2.3 °C 29.99in /  1015.5hPa Calm     88% 0.00in /  0mm 0 W/m2
01:14 31 °F /  -0.6 °C 27.9 °F /  -2.3 °C 29.99in /  1015.5hPa Calm     88% 0.00in /  0mm 0 W/m2
01:19 31 °F /  -0.6 °C 27.9 °F /  -2.3 °C 29.99in /  1015.5hPa Calm     88% 0.00in /  0mm 0 W/m2
01:24 31 °F /  -0.6 °C 27.9 °F /  -2.3 °C 29.99in /  1015.5hPa Calm     88% 0.00in /  0mm 0 W/m2
01:29 30.9 °F /  -0.6 °C 27.8 °F /  -2.3 °C 29.99in /  1015.5hPa Calm     88% 0.00in /  0mm 0 W/m2
01:34 30.9 °F /  -0.6 °C 27.8 °F /  -2.3 °C 29.99in /  1015.5hPa Calm     88% 0.00in /  0mm 0 W/m2
01:39 30.9 °F /  -0.6 °C 27.8 °F /  -2.3 °C 29.98in /  1015.1hPa Calm     88% 0.00in /  0mm 0 W/m2
01:44 30.8 °F /  -0.7 °C 27.7 °F /  -2.4 °C 29.98in /  1015.1hPa Calm     88% 0.00in /  0mm 0 W/m2
01:49 30.8 °F /  -0.7 °C 27.7 °F /  -2.4 °C 29.98in /  1015.1hPa Calm     88.2% 0.00in /  0mm 0 W/m2
01:54 30.8 °F /  -0.7 °C 28 °F /  -2.2 °C 29.98in /  1015.1hPa Calm     89% 0.00in /  0mm 0 W/m2
01:59 30.8 °F /  -0.7 °C 28 °F /  -2.2 °C 29.98in /  1015.1hPa Calm     89% 0.00in /  0mm 0 W/m2
02:04 30.7 °F /  -0.7 °C 27.9 °F /  -2.3 °C 29.99in /  1015.5hPa Calm     89% 0.00in /  0mm 0 W/m2
02:09 30.7 °F /  -0.7 °C 27.9 °F /  -2.3 °C 29.99in /  1015.5hPa Calm     89% 0.00in /  0mm 0 W/m2
02:14 30.7 °F /  -0.7 °C 27.9 °F /  -2.3 °C 29.98in /  1015.1hPa NNW 0.1mph /  0.2km/h 1mph /  1.6km/h 89% 0.00in /  0mm 0 W/m2
02:19 30.7 °F /  -0.7 °C 27.8 °F /  -2.3 °C 29.98in /  1015.1hPa Calm   1mph /  1.6km/h 88.9% 0.00in /  0mm 0 W/m2
02:24 30.6 °F /  -0.8 °C 27.5 °F /  -2.5 °C 29.98in /  1015.1hPa NNW 0.3mph /  0.5km/h 3mph /  4.8km/h 88% 0.00in /  0mm 0 W/m2
02:29 30.6 °F /  -0.8 °C 27.3 °F /  -2.6 °C 29.98in /  1015.1hPa North 0.3mph /  0.5km/h 3mph /  4.8km/h 87.3% 0.00in /  0mm 0 W/m2
02:34 30.6 °F /  -0.8 °C 27 °F /  -2.8 °C 29.99in /  1015.5hPa NNW 2.3mph /  3.7km/h 6mph /  9.7km/h 86.3% 0.00in /  0mm 0 W/m2
02:39 30.7 °F /  -0.7 °C 26.6 °F /  -3 °C 29.99in /  1015.5hPa NW 0.7mph /  1.1km/h 6mph /  9.7km/h 84.7% 0.00in /  0mm 0 W/m2
02:44 30.7 °F /  -0.7 °C 26.3 °F /  -3.2 °C 29.99in /  1015.5hPa NNW 0.8mph /  1.3km/h 6mph /  9.7km/h 83.3% 0.00in /  0mm 0 W/m2
02:49 30.8 °F /  -0.7 °C 26 °F /  -3.3 °C 29.98in /  1015.1hPa NW 1.6mph /  2.6km/h 8mph /  12.9km/h 82.1% 0.00in /  0mm 0 W/m2
02:54 30.9 °F /  -0.6 °C 25.6 °F /  -3.6 °C 29.98in /  1015.1hPa NNW 2.2mph /  3.5km/h 8mph /  12.9km/h 80.6% 0.00in /  0mm 0 W/m2
02:59 30.9 °F /  -0.6 °C 25.2 °F /  -3.8 °C 29.98in /  1015.1hPa NW 3mph /  4.8km/h 8mph /  12.9km/h 79% 0.00in /  0mm 0 W/m2
03:04 31 °F /  -0.6 °C 24.9 °F /  -3.9 °C 29.98in /  1015.1hPa North 0.9mph /  1.4km/h 8mph /  12.9km/h 77.8% 0.00in /  0mm 0 W/m2
03:09 31.1 °F /  -0.5 °C 24.7 °F /  -4.1 °C 29.97in /  1014.8hPa NNW 1.2mph /  1.9km/h 6mph /  9.7km/h 77% 0.00in /  0mm 0 W/m2
03:14 31.1 °F /  -0.5 °C 24.7 °F /  -4.1 °C 29.98in /  1015.1hPa NNW 0.5mph /  0.8km/h 6mph /  9.7km/h 77% 0.00in /  0mm 0 W/m2
03:19 31 °F /  -0.6 °C 24.6 °F /  -4.1 °C 29.98in /  1015.1hPa NNW 2.4mph /  3.9km/h 8mph /  12.9km/h 76.9% 0.00in /  0mm 0 W/m2
03:24 31.1 °F /  -0.5 °C 24.4 °F /  -4.2 °C 29.98in /  1015.1hPa NNW 0.7mph /  1.1km/h 8mph /  12.9km/h 76% 0.00in /  0mm 0 W/m2
03:29 31.1 °F /  -0.5 °C 24.4 °F /  -4.2 °C 29.98in /  1015.1hPa NNW 0.2mph /  0.3km/h 8mph /  12.9km/h 76% 0.00in /  0mm 0 W/m2
03:34 31 °F /  -0.6 °C 24.4 °F /  -4.2 °C 29.98in /  1015.1hPa NNW 0.1mph /  0.2km/h 8mph /  12.9km/h 76% 0.00in /  0mm 0 W/m2
03:39 31 °F /  -0.6 °C 24.3 °F /  -4.3 °C 29.98in /  1015.1hPa NNW 0.1mph /  0.2km/h 3mph /  4.8km/h 76% 0.00in /  0mm 0 W/m2
03:44 31 °F /  -0.6 °C 24.1 °F /  -4.4 °C 29.98in /  1015.1hPa North 0.7mph /  1.1km/h 5mph /  8km/h 75.2% 0.00in /  0mm 0 W/m2
03:49 31 °F /  -0.6 °C 24.1 °F /  -4.4 °C 29.99in /  1015.5hPa Calm   5mph /  8km/h 75.5% 0.00in /  0mm 0 W/m2
03:54 30.9 °F /  -0.6 °C 24 °F /  -4.4 °C 29.99in /  1015.5hPa Calm   5mph /  8km/h 75.4% 0.00in /  0mm 0 W/m2
03:59 30.8 °F /  -0.7 °C 23.8 °F /  -4.6 °C 29.99in /  1015.5hPa North 0.2mph /  0.3km/h 5mph /  8km/h 75% 0.00in /  0mm 0 W/m2
04:04 30.7 °F /  -0.7 °C 24 °F /  -4.4 °C 29.99in /  1015.5hPa North 0.3mph /  0.5km/h 1mph /  1.6km/h 76% 0.00in /  0mm 0 W/m2
04:09 30.6 °F /  -0.8 °C 23.7 °F /  -4.6 °C 29.99in /  1015.5hPa NW 1.6mph /  2.6km/h 5mph /  8km/h 75.1% 0.00in /  0mm 0 W/m2
04:14 30.5 °F /  -0.8 °C 23.5 °F /  -4.7 °C 29.99in /  1015.5hPa NW 0.1mph /  0.2km/h 5mph /  8km/h 75% 0.00in /  0mm 0 W/m2
04:19 30.5 °F /  -0.8 °C 23.5 °F /  -4.7 °C 29.99in /  1015.5hPa Calm   5mph /  8km/h 75% 0.00in /  0mm 0 W/m2
04:24 30.4 °F /  -0.9 °C 23.6 °F /  -4.7 °C 29.99in /  1015.5hPa NW 1.8mph /  2.9km/h 10mph /  16.1km/h 75.7% 0.00in /  0mm 0 W/m2
04:29 30.2 °F /  -1 °C 23.3 °F /  -4.8 °C 29.99in /  1015.5hPa NW 0.7mph /  1.1km/h 10mph /  16.1km/h 75% 0.00in /  0mm 0 W/m2
04:34 30.2 °F /  -1 °C 23.2 °F /  -4.9 °C 29.99in /  1015.5hPa NNW 0.4mph /  0.6km/h 10mph /  16.1km/h 75% 0.00in /  0mm 0 W/m2
04:39 30.2 °F /  -1 °C 23.2 °F /  -4.9 °C 30.00in /  1015.8hPa NW 2.3mph /  3.7km/h 7mph /  11.3km/h 75% 0.00in /  0mm 0 W/m2
04:44 30.1 °F /  -1.1 °C 23.2 °F /  -4.9 °C 30.00in /  1015.8hPa Calm   7mph /  11.3km/h 75% 0.00in /  0mm 0 W/m2
04:49 30.1 °F /  -1.1 °C 23.2 °F /  -4.9 °C 29.99in /  1015.5hPa NNW 0.3mph /  0.5km/h 7mph /  11.3km/h 75% 0.00in /  0mm 0 W/m2
04:54 30 °F /  -1.1 °C 23.1 °F /  -4.9 °C 30.00in /  1015.8hPa NW 0.9mph /  1.4km/h 7mph /  11.3km/h 75% 0.00in /  0mm 0 W/m2
04:59 29.9 °F /  -1.2 °C 23 °F /  -5 °C 29.99in /  1015.5hPa NW 4.6mph /  7.4km/h 11mph /  17.7km/h 75% 0.00in /  0mm 0 W/m2
05:04 29.9 °F /  -1.2 °C 22.9 °F /  -5.1 °C 30.00in /  1015.8hPa NW 1.8mph /  2.9km/h 11mph /  17.7km/h 75% 0.00in /  0mm 0 W/m2
05:09 29.8 °F /  -1.2 °C 22.8 °F /  -5.1 °C 30.00in /  1015.8hPa NW 3.6mph /  5.8km/h 11mph /  17.7km/h 75% 0.00in /  0mm 0 W/m2
05:14 29.6 °F /  -1.3 °C 22.6 °F /  -5.2 °C 30.00in /  1015.8hPa NW 3.7mph /  6km/h 11mph /  17.7km/h 75% 0.00in /  0mm 0 W/m2
05:19 29.3 °F /  -1.5 °C 22.4 °F /  -5.3 °C 30.00in /  1015.8hPa NW 1.3mph /  2.1km/h 11mph /  17.7km/h 75% 0.00in /  0mm 0 W/m2
05:24 29 °F /  -1.7 °C 22.1 °F /  -5.5 °C 30.00in /  1015.8hPa NW 2.9mph /  4.7km/h 11mph /  17.7km/h 75% 0.00in /  0mm 0 W/m2
05:29 28.8 °F /  -1.8 °C 22.2 °F /  -5.4 °C 30.00in /  1015.8hPa NW 0.7mph /  1.1km/h 11mph /  17.7km/h 76% 0.00in /  0mm 0 W/m2
05:34 28.6 °F /  -1.9 °C 22 °F /  -5.6 °C 30.00in /  1015.8hPa NW 0.7mph /  1.1km/h 11mph /  17.7km/h 76% 0.00in /  0mm 0 W/m2
05:39 28.4 °F /  -2 °C 21.9 °F /  -5.6 °C 30.01in /  1016.1hPa NW 0.1mph /  0.2km/h 6mph /  9.7km/h 76% 0.00in /  0mm 0 W/m2
05:44 28.3 °F /  -2.1 °C 21.7 °F /  -5.7 °C 30.01in /  1016.1hPa NW 1.6mph /  2.6km/h 6mph /  9.7km/h 76% 0.00in /  0mm 0 W/m2
05:49 28.1 °F /  -2.2 °C 21.5 °F /  -5.8 °C 30.01in /  1016.1hPa Calm   6mph /  9.7km/h 76% 0.00in /  0mm 0 W/m2
05:54 27.9 °F /  -2.3 °C 21.5 °F /  -5.8 °C 30.01in /  1016.1hPa Calm   6mph /  9.7km/h 76.3% 0.00in /  0mm 0 W/m2
05:59 27.8 °F /  -2.3 °C 21.5 °F /  -5.8 °C 30.01in /  1016.1hPa WNW 0.5mph /  0.8km/h 6mph /  9.7km/h 77% 0.00in /  0mm 0 W/m2
06:04 27.6 °F /  -2.4 °C 21.4 °F /  -5.9 °C 30.01in /  1016.1hPa Calm   6mph /  9.7km/h 77% 0.00in /  0mm 0 W/m2
06:09 27.5 °F /  -2.5 °C 21.2 °F /  -6 °C 30.01in /  1016.1hPa Calm     77% 0.00in /  0mm 0 W/m2
06:14 27.3 °F /  -2.6 °C 21.2 °F /  -6 °C 30.01in /  1016.1hPa Calm     77.5% 0.00in /  0mm 0 W/m2
06:19 27.1 °F /  -2.7 °C 21.2 °F /  -6 °C 30.01in /  1016.1hPa Calm   2mph /  3.2km/h 78% 0.00in /  0mm 0 W/m2
06:24 26.9 °F /  -2.8 °C 21 °F /  -6.1 °C 30.01in /  1016.1hPa Calm   2mph /  3.2km/h 78% 0.00in /  0mm 0 W/m2
06:29 26.7 °F /  -2.9 °C 20.8 °F /  -6.2 °C 30.01in /  1016.1hPa NW 0.7mph /  1.1km/h 5mph /  8km/h 78% 0.00in /  0mm 0 W/m2
06:34 26.5 °F /  -3.1 °C 21 °F /  -6.1 °C 30.01in /  1016.1hPa WNW 0.7mph /  1.1km/h 5mph /  8km/h 79.4% 0.00in /  0mm 0 W/m2
06:39 26.3 °F /  -3.2 °C 20.7 °F /  -6.3 °C 30.01in /  1016.1hPa WNW 1.3mph /  2.1km/h 6mph /  9.7km/h 78.8% 0.00in /  0mm 0 W/m2
06:44 26.2 °F /  -3.2 °C 20.6 °F /  -6.3 °C 30.01in /  1016.1hPa WNW 1.8mph /  2.9km/h 6mph /  9.7km/h 79% 0.00in /  0mm 0 W/m2
06:49 26.1 °F /  -3.3 °C 20.5 °F /  -6.4 °C 30.01in /  1016.1hPa WNW 2.4mph /  3.9km/h 9mph /  14.5km/h 79% 0.00in /  0mm 0 W/m2
06:54 26 °F /  -3.3 °C 20.4 °F /  -6.4 °C 30.01in /  1016.1hPa WNW 2.1mph /  3.4km/h 9mph /  14.5km/h 79% 0.00in /  0mm 7 W/m2
06:59 26.1 °F /  -3.3 °C 20.5 °F /  -6.4 °C 30.01in /  1016.1hPa WNW 2.2mph /  3.5km/h 9mph /  14.5km/h 79% 0.00in /  0mm 7 W/m2
07:04 26.2 °F /  -3.2 °C 20.7 °F /  -6.3 °C 30.01in /  1016.1hPa WNW 1.6mph /  2.6km/h 9mph /  14.5km/h 79.3% 0.00in /  0mm 21 W/m2
07:09 26.5 °F /  -3.1 °C 20.9 °F /  -6.2 °C 30.01in /  1016.1hPa WNW 1.9mph /  3.1km/h 9mph /  14.5km/h 79% 0.00in /  0mm 30 W/m2
07:14 26.9 °F /  -2.8 °C 21.1 °F /  -6.1 °C 30.01in /  1016.1hPa WNW 2mph /  3.2km/h 9mph /  14.5km/h 78.4% 0.00in /  0mm 32 W/m2
07:19 27.4 °F /  -2.6 °C 21.2 °F /  -6 °C 30.01in /  1016.1hPa WNW 0.3mph /  0.5km/h 9mph /  14.5km/h 77.2% 0.00in /  0mm 18 W/m2
07:24 27.7 °F /  -2.4 °C 21.1 °F /  -6.1 °C 30.02in /  1016.5hPa WNW 1.8mph /  2.9km/h 9mph /  14.5km/h 76.1% 0.00in /  0mm 21 W/m2
07:29 27.8 °F /  -2.3 °C 21.3 °F /  -5.9 °C 30.02in /  1016.5hPa NW 2.1mph /  3.4km/h 12mph /  19.3km/h 76% 0.00in /  0mm 21 W/m2
07:34 27.9 °F /  -2.3 °C 21.1 °F /  -6.1 °C 30.02in /  1016.5hPa WNW 2.8mph /  4.5km/h 12mph /  19.3km/h 75.2% 0.00in /  0mm 19 W/m2
07:39 28 °F /  -2.2 °C 21.1 °F /  -6.1 °C 30.02in /  1016.5hPa NW 1mph /  1.6km/h 6mph /  9.7km/h 75% 0.00in /  0mm 16 W/m2
07:44 28 °F /  -2.2 °C 20.9 °F /  -6.2 °C 30.02in /  1016.5hPa WNW 2mph /  3.2km/h 8mph /  12.9km/h 74.3% 0.00in /  0mm 16 W/m2
07:49 28.1 °F /  -2.2 °C 21 °F /  -6.1 °C 30.02in /  1016.5hPa WNW 1.8mph /  2.9km/h 8mph /  12.9km/h 74.2% 0.00in /  0mm 18 W/m2
07:54 28.2 °F /  -2.1 °C 21 °F /  -6.1 °C 30.02in /  1016.5hPa WNW 2.5mph /  4km/h 8mph /  12.9km/h 74% 0.00in /  0mm 21 W/m2
07:59 28.3 °F /  -2.1 °C 20.9 °F /  -6.2 °C 30.02in /  1016.5hPa WNW 2.8mph /  4.5km/h 11mph /  17.7km/h 73.3% 0.00in /  0mm 30 W/m2
08:00 28.4 °F /  -2 °C 20.9 °F /  -6.2 °C 30.02in /  1016.5hPa NW 2mph /  3.2km/h 11mph /  17.7km/h 73% 0.00in /  0mm 33 W/m2
08:09 28.7 °F /  -1.8 °C 20.9 °F /  -6.2 °C 30.02in /  1016.5hPa WNW 2.8mph /  4.5km/h 12mph /  19.3km/h 72% 0.00in /  0mm 49 W/m2
08:14 28.9 °F /  -1.7 °C 21 °F /  -6.1 °C 30.02in /  1016.5hPa WNW 3.6mph /  5.8km/h 12mph /  19.3km/h 71.8% 0.00in /  0mm 39 W/m2
08:19 29.1 °F /  -1.6 °C 21 °F /  -6.1 °C 30.02in /  1016.5hPa WNW 3.2mph /  5.1km/h 12mph /  19.3km/h 71.4% 0.00in /  0mm 100 W/m2
08:24 29.4 °F /  -1.4 °C 21.2 °F /  -6 °C 30.02in /  1016.5hPa WNW 1.3mph /  2.1km/h 12mph /  19.3km/h 71% 0.00in /  0mm 109 W/m2
08:29 29.9 °F /  -1.2 °C 21.6 °F /  -5.8 °C 30.02in /  1016.5hPa WNW 1.5mph /  2.4km/h 12mph /  19.3km/h 70.9% 0.00in /  0mm 107 W/m2
08:34 30.3 °F /  -0.9 °C 21.6 °F /  -5.8 °C 30.02in /  1016.5hPa West 4.4mph /  7.1km/h 12mph /  19.3km/h 69.6% 0.00in /  0mm 114 W/m2
08:39 30.7 °F /  -0.7 °C 21.6 °F /  -5.8 °C 30.02in /  1016.5hPa WNW 6mph /  9.7km/h 12mph /  19.3km/h 68.6% 0.00in /  0mm 102 W/m2
08:44 31 °F /  -0.6 °C 21.7 °F /  -5.7 °C 30.02in /  1016.5hPa WNW 3.4mph /  5.5km/h 12mph /  19.3km/h 67.8% 0.00in /  0mm 118 W/m2
08:49 31.3 °F /  -0.4 °C 21.7 °F /  -5.7 °C 30.02in /  1016.5hPa WNW 3.8mph /  6.1km/h 12mph /  19.3km/h 67.1% 0.00in /  0mm 125 W/m2
08:54 31.5 °F /  -0.3 °C 21.5 °F /  -5.8 °C 30.02in /  1016.5hPa WNW 5.1mph /  8.2km/h 13mph /  20.9km/h 66.2% 0.00in /  0mm 128 W/m2
08:59 31.6 °F /  -0.2 °C 21.6 °F /  -5.8 °C 30.02in /  1016.5hPa WNW 4mph /  6.4km/h 13mph /  20.9km/h 66% 0.00in /  0mm 105 W/m2
09:04 31.7 °F /  -0.2 °C 21.6 °F /  -5.8 °C 30.02in /  1016.5hPa NW 3.6mph /  5.8km/h 13mph /  20.9km/h 65.6% 0.00in /  0mm 123 W/m2
09:09 31.9 °F /  -0.1 °C 22.1 °F /  -5.5 °C 30.02in /  1016.5hPa NW 5.1mph /  8.2km/h 12mph /  19.3km/h 66.9% 0.00in /  0mm 123 W/m2
09:14 32 °F /  0 °C 22.3 °F /  -5.4 °C 30.02in /  1016.5hPa WNW 6.2mph /  10km/h 14mph /  22.5km/h 67% 0.00in /  0mm 130 W/m2
09:19 32.1 °F /  0.1 °C 22.3 °F /  -5.4 °C 30.02in /  1016.5hPa WNW 5.2mph /  8.4km/h 14mph /  22.5km/h 66.7% 0.00in /  0mm 93 W/m2
09:24 32.3 °F /  0.2 °C 22.4 °F /  -5.3 °C 30.01in /  1016.1hPa WNW 8.6mph /  13.8km/h 19mph /  30.6km/h 66.5% 0.00in /  0mm 109 W/m2
09:29 32.4 °F /  0.2 °C 21.8 °F /  -5.7 °C 30.01in /  1016.1hPa WNW 9.2mph /  14.8km/h 20mph /  32.2km/h 64.7% 0.00in /  0mm 135 W/m2
09:34 32.3 °F /  0.2 °C 21.5 °F /  -5.8 °C 30.02in /  1016.5hPa NW 6.5mph /  10.5km/h 20mph /  32.2km/h 63.9% 0.00in /  0mm 185 W/m2
09:39 32.5 °F /  0.3 °C 21.4 °F /  -5.9 °C 30.02in /  1016.5hPa NW 9.8mph /  15.8km/h 16mph /  25.7km/h 63.1% 0.00in /  0mm 206 W/m2
09:44 32.7 °F /  0.4 °C 21.1 °F /  -6.1 °C 30.01in /  1016.1hPa NW 6.2mph /  10km/h 16mph /  25.7km/h 62% 0.00in /  0mm 206 W/m2
09:49 33.1 °F /  0.6 °C 21.5 °F /  -5.8 °C 30.01in /  1016.1hPa NW 7mph /  11.3km/h 16mph /  25.7km/h 62% 0.00in /  0mm 183 W/m2
09:54 33.5 °F /  0.8 °C 21.6 °F /  -5.8 °C 30.01in /  1016.1hPa NW 4.4mph /  7.1km/h 16mph /  25.7km/h 61.1% 0.00in /  0mm 197 W/m2
09:59 33.9 °F /  1.1 °C 21.9 °F /  -5.6 °C 30.01in /  1016.1hPa WNW 3.3mph /  5.3km/h 16mph /  25.7km/h 61% 0.00in /  0mm 262 W/m2
10:04 34.3 °F /  1.3 °C 21.9 °F /  -5.6 °C 30.01in /  1016.1hPa NW 9.5mph /  15.3km/h 18mph /  29km/h 60.1% 0.00in /  0mm 322 W/m2
10:09 34.2 °F /  1.2 °C 21.1 °F /  -6.1 °C 30.01in /  1016.1hPa NW 7.1mph /  11.4km/h 18mph /  29km/h 58.3% 0.00in /  0mm 338 W/m2
10:14 34 °F /  1.1 °C 20.7 °F /  -6.3 °C 30.01in /  1016.1hPa NW 7.2mph /  11.6km/h 18mph /  29km/h 57.8% 0.00in /  0mm 323 W/m2
10:19 33.9 °F /  1.1 °C 20.8 °F /  -6.2 °C 30.01in /  1016.1hPa NW 9.2mph /  14.8km/h 18mph /  29km/h 58.3% 0.00in /  0mm 359 W/m2
10:24 34 °F /  1.1 °C 20.6 °F /  -6.3 °C 30.01in /  1016.1hPa NW 6.7mph /  10.8km/h 18mph /  29km/h 57.6% 0.00in /  0mm 371 W/m2
10:29 34.2 °F /  1.2 °C 21.1 °F /  -6.1 °C 30.01in /  1016.1hPa WNW 5.1mph /  8.2km/h 18mph /  29km/h 58.3% 0.00in /  0mm 336 W/m2
10:34 34.5 °F /  1.4 °C 21 °F /  -6.1 °C 30.01in /  1016.1hPa WNW 9.3mph /  15km/h 18mph /  29km/h 57.3% 0.00in /  0mm 464 W/m2
10:39 34.7 °F /  1.5 °C 20.8 °F /  -6.2 °C 30.01in /  1016.1hPa WNW 9.9mph /  15.9km/h 20mph /  32.2km/h 56.4% 0.00in /  0mm 490 W/m2
10:44 35 °F /  1.7 °C 21.1 °F /  -6.1 °C 30.01in /  1016.1hPa NW 6.2mph /  10km/h 20mph /  32.2km/h 56.3% 0.00in /  0mm 580 W/m2
10:49 35.4 °F /  1.9 °C 21.1 °F /  -6.1 °C 30.01in /  1016.1hPa WNW 7.8mph /  12.6km/h 20mph /  32.2km/h 55.5% 0.00in /  0mm 580 W/m2
10:54 35.5 °F /  1.9 °C 20.8 °F /  -6.2 °C 30.01in /  1016.1hPa WNW 7.2mph /  11.6km/h 20mph /  32.2km/h 54.6% 0.00in /  0mm 315 W/m2
10:59 35.4 °F /  1.9 °C 20.5 °F /  -6.4 °C 30.01in /  1016.1hPa WNW 6.6mph /  10.6km/h 20mph /  32.2km/h 54.3% 0.00in /  0mm 121 W/m2
11:04 35 °F /  1.7 °C 20.4 °F /  -6.4 °C 30.01in /  1016.1hPa NW 6.4mph /  10.3km/h 20mph /  32.2km/h 54.7% 0.00in /  0mm 199 W/m2
11:09 35.2 °F /  1.8 °C 20.4 °F /  -6.4 °C 30.01in /  1016.1hPa NW 8.4mph /  13.5km/h 15mph /  24.1km/h 54.5% 0.00in /  0mm 548 W/m2
11:13 35.4 °F /  1.9 °C 20.4 °F /  -6.4 °C 30.01in /  1016.1hPa NNW 8.6mph /  13.8km/h 18mph /  29km/h 53.8% 0.00in /  0mm 548 W/m2
11:30 35.2 °F /  1.8 °C 18.9 °F /  -7.3 °C 30.01in /  1016.1hPa NW 8mph /  12.9km/h 21mph /  33.8km/h 51% 0.00in /  0mm 361 W/m2
12:04 36.4 °F /  2.4 °C 19.6 °F /  -6.9 °C 30.01in /  1016.1hPa NW 12mph /  19.3km/h 21mph /  33.8km/h 50.1% 0.00in /  0mm 438 W/m2
12:09 36.2 °F /  2.3 °C 19.2 °F /  -7.1 °C 30.01in /  1016.1hPa NW 12.3mph /  19.8km/h 22mph /  35.4km/h 49.6% 0.00in /  0mm 438 W/m2
12:14 35.8 °F /  2.1 °C 19.4 °F /  -7 °C 30.01in /  1016.1hPa WNW 8.7mph /  14km/h 22mph /  35.4km/h 51% 0.00in /  0mm 438 W/m2
12:19 35.6 °F /  2 °C 19.9 °F /  -6.7 °C 30.01in /  1016.1hPa NW 9.2mph /  14.8km/h 22mph /  35.4km/h 52.5% 0.00in /  0mm 118 W/m2
12:24 35.5 °F /  1.9 °C 19.9 °F /  -6.7 °C 30.01in /  1016.1hPa NW 4.9mph /  7.9km/h 22mph /  35.4km/h 52.5% 0.00in /  0mm 234 W/m2
12:29 35.6 °F /  2 °C 19.8 °F /  -6.8 °C 30.01in /  1016.1hPa NW 9mph /  14.5km/h 22mph /  35.4km/h 52.3% 0.00in /  0mm 234 W/m2
12:34 35.5 °F /  1.9 °C 19.3 °F /  -7.1 °C 30.00in /  1015.8hPa NW 6.8mph /  10.9km/h 22mph /  35.4km/h 51.3% 0.00in /  0mm 171 W/m2
12:39 35.4 °F /  1.9 °C 19.9 °F /  -6.7 °C 30.00in /  1015.8hPa WNW 5.5mph /  8.9km/h 16mph /  25.7km/h 52.7% 0.00in /  0mm 541 W/m2
12:44 35.7 °F /  2.1 °C 20.4 °F /  -6.4 °C 30.00in /  1015.8hPa NW 9.5mph /  15.3km/h 17mph /  27.4km/h 53.3% 0.00in /  0mm 547 W/m2
12:49 35.7 °F /  2.1 °C 19.9 °F /  -6.7 °C 30.00in /  1015.8hPa WNW 10.1mph /  16.3km/h 21mph /  33.8km/h 52.2% 0.00in /  0mm 278 W/m2
12:54 35.6 °F /  2 °C 19.7 °F /  -6.8 °C 30.00in /  1015.8hPa NW 9.3mph /  15km/h 21mph /  33.8km/h 51.9% 0.00in /  0mm 237 W/m2
12:59 35.4 °F /  1.9 °C 19.4 °F /  -7 °C 30.00in /  1015.8hPa NW 7.3mph /  11.7km/h 21mph /  33.8km/h 51.6% 0.00in /  0mm 237 W/m2
13:04 35.4 °F /  1.9 °C 19.3 °F /  -7.1 °C 30.00in /  1015.8hPa NW 10.6mph /  17.1km/h 23mph /  37km/h 51.6% 0.00in /  0mm 206 W/m2
13:09 35.3 °F /  1.8 °C 19.3 °F /  -7.1 °C 30.00in /  1015.8hPa NW 8.1mph /  13km/h 23mph /  37km/h 51.6% 0.00in /  0mm 160 W/m2
13:14 35.4 °F /  1.9 °C 19.5 °F /  -6.9 °C 30.00in /  1015.8hPa WNW 8.3mph /  13.4km/h 23mph /  37km/h 52% 0.00in /  0mm 582 W/m2
13:19 35.6 °F /  2 °C 19.7 °F /  -6.8 °C 30.00in /  1015.8hPa NW 6.3mph /  10.1km/h 23mph /  37km/h 51.9% 0.00in /  0mm 468 W/m2
13:24 35.7 °F /  2.1 °C 19.3 °F /  -7.1 °C 30.00in /  1015.8hPa NW 6.2mph /  10km/h 23mph /  37km/h 51% 0.00in /  0mm 315 W/m2
13:29 35.5 °F /  1.9 °C 19.1 °F /  -7.2 °C 29.99in /  1015.5hPa NW 8.1mph /  13km/h 23mph /  37km/h 50.8% 0.00in /  0mm 255 W/m2
13:34 35.3 °F /  1.8 °C 18.7 °F /  -7.4 °C 29.99in /  1015.5hPa NW 8.4mph /  13.5km/h 23mph /  37km/h 50.5% 0.00in /  0mm 209 W/m2
13:39 34.9 °F /  1.6 °C 18.6 °F /  -7.4 °C 30.00in /  1015.8hPa NW 6.9mph /  11.1km/h 18mph /  29km/h 51% 0.00in /  0mm 149 W/m2
13:44 34.7 °F /  1.5 °C 18.2 °F /  -7.7 °C 30.00in /  1015.8hPa WNW 12mph /  19.3km/h 23mph /  37km/h 50.6% 0.00in /  0mm 151 W/m2
13:49 34.4 °F /  1.3 °C 17.8 °F /  -7.9 °C 30.00in /  1015.8hPa NW 10.4mph /  16.7km/h 23mph /  37km/h 50.2% 0.00in /  0mm 134 W/m2
13:54 34.1 °F /  1.2 °C 17.6 °F /  -8 °C 30.00in /  1015.8hPa NW 9.1mph /  14.6km/h 23mph /  37km/h 50.3% 0.00in /  0mm 130 W/m2
13:59 33.9 °F /  1.1 °C 17.9 °F /  -7.8 °C 30.00in /  1015.8hPa NW 9.7mph /  15.6km/h 23mph /  37km/h 51.5% 0.00in /  0mm 132 W/m2
14:04 33.8 °F /  1 °C 17.8 °F /  -7.9 °C 30.00in /  1015.8hPa NW 8.3mph /  13.4km/h 23mph /  37km/h 51.6% 0.00in /  0mm 105 W/m2
14:09 33.6 °F /  0.9 °C 17.5 °F /  -8.1 °C 30.00in /  1015.8hPa WNW 10.1mph /  16.3km/h 19mph /  30.6km/h 51% 0.00in /  0mm 120 W/m2
14:14 33.5 °F /  0.8 °C 17.2 °F /  -8.2 °C 30.00in /  1015.8hPa NW 9.2mph /  14.8km/h 19mph /  30.6km/h 50.8% 0.00in /  0mm 107 W/m2
14:19 33.4 °F /  0.8 °C 17.1 °F /  -8.3 °C 29.99in /  1015.5hPa NW 11.4mph /  18.3km/h 19mph /  30.6km/h 50.7% 0.00in /  0mm 72 W/m2
14:24 33.3 °F /  0.7 °C 17.1 °F /  -8.3 °C 29.99in /  1015.5hPa WNW 11.5mph /  18.5km/h 19mph /  30.6km/h 51.1% 0.00in /  0mm 148 W/m2
14:29 33.3 °F /  0.7 °C 17.1 °F /  -8.3 °C 29.99in /  1015.5hPa WNW 12.1mph /  19.5km/h 22mph /  35.4km/h 51% 0.00in /  0mm 181 W/m2
14:34 33.3 °F /  0.7 °C 17.1 °F /  -8.3 °C 29.99in /  1015.5hPa WNW 12.4mph /  20km/h 22mph /  35.4km/h 51% 0.00in /  0mm 125 W/m2
14:39 33.3 °F /  0.7 °C 17.1 °F /  -8.3 °C 29.99in /  1015.5hPa NW 10.1mph /  16.3km/h 22mph /  35.4km/h 51% 0.00in /  0mm 123 W/m2
14:44 33.3 °F /  0.7 °C 17.5 °F /  -8.1 °C 30.00in /  1015.8hPa NW 12.4mph /  20km/h 24mph /  38.6km/h 51.8% 0.00in /  0mm 179 W/m2
14:49 33.3 °F /  0.7 °C 17.6 °F /  -8 °C 30.00in /  1015.8hPa NW 8.6mph /  13.8km/h 24mph /  38.6km/h 52.1% 0.00in /  0mm 156 W/m2
14:54 33.4 °F /  0.8 °C 17.7 °F /  -7.9 °C 30.00in /  1015.8hPa WNW 10.8mph /  17.4km/h 24mph /  38.6km/h 52.1% 0.00in /  0mm 148 W/m2
14:59 33.5 °F /  0.8 °C 17.7 °F /  -7.9 °C 30.01in /  1016.1hPa WNW 8.3mph /  13.4km/h 24mph /  38.6km/h 52% 0.00in /  0mm 262 W/m2
15:04 33.7 °F /  0.9 °C 18.2 °F /  -7.7 °C 30.01in /  1016.1hPa NW 11mph /  17.7km/h 24mph /  38.6km/h 52.4% 0.00in /  0mm 262 W/m2
15:09 34.1 °F /  1.2 °C 18 °F /  -7.8 °C 30.01in /  1016.1hPa WNW 10.4mph /  16.7km/h 24mph /  38.6km/h 51.3% 0.00in /  0mm 200 W/m2
15:13 34.1 °F /  1.2 °C 17.9 °F /  -7.8 °C 30.01in /  1016.1hPa WNW 10.1mph /  16.3km/h 24mph /  38.6km/h 51% 0.00in /  0mm 172 W/m2
Hartford County Weather
Compliments of Weather Underground - 2 mb